Time;durP1;ratioP1;P1;durP2;ratioP2;P2;SDS_P1;SDS_P2;PMS_P1;PMS_P2;Temp;Humidity;BMP_temperature;BMP_pressure;BME280_temperature;BME280_humidity;BME280_pressure;Samples;Min_cycle;Max_cycle;Signal;HPM_P1;HPM_P2
2022/12/23 00:02:20;;;;;;;35.08;20.92;;;9.00;99.90;;;;;;5077667;28;20049;-62
2022/12/23 00:04:46;;;;;;;34.97;21.17;;;8.90;99.90;;;;;;5073849;28;20174;-61
2022/12/23 00:07:11;;;;;;;35.28;22.52;;;9.00;99.90;;;;;;5073844;28;20036;-60
2022/12/23 00:09:37;;;;;;;40.80;22.58;;;8.90;99.90;;;;;;5073369;28;20044;-61
2022/12/23 00:15:05;;;;;;;48.63;24.33;;;8.90;99.90;;;;;;5073163;28;20067;-59
2022/12/23 00:17:31;;;;;;;55.88;26.98;;;8.90;99.90;;;;;;5078239;28;20105;-61
2022/12/23 00:19:57;;;;;;;54.90;25.40;;;9.00;99.90;;;;;;5070891;28;20098;-60
2022/12/23 00:23:03;;;;;;;83.32;29.20;;;8.80;99.90;;;;;;5072683;28;20456;-59
2022/12/23 00:25:09;;;;;;;125.32;34.08;;;8.80;99.90;;;;;;5069901;28;20036;-60
2022/12/23 00:27:34;;;;;;;101.97;30.70;;;8.90;99.90;;;;;;5078943;28;20538;-58
2022/12/23 00:30:00;;;;;;;91.75;30.27;;;8.90;99.90;;;;;;5084650;28;20076;-61
2022/12/23 00:32:25;;;;;;;65.22;27.83;;;8.80;99.90;;;;;;5076213;28;20338;-61
2022/12/23 00:34:51;;;;;;;70.95;27.27;;;8.90;99.90;;;;;;5072262;28;20040;-61
2022/12/23 00:37:16;;;;;;;67.70;27.95;;;8.90;99.90;;;;;;5072599;28;20040;-60
2022/12/23 00:45:17;;;;;;;60.03;26.58;;;8.90;99.90;;;;;;5079686;28;20074;-60
2022/12/23 00:50:28;;;;;;;58.88;25.40;;;8.80;99.90;;;;;;5072711;28;20110;-60
2022/12/23 00:52:54;;;;;;;57.78;26.25;;;8.90;99.90;;;;;;5071969;28;20361;-61
2022/12/23 00:55:20;;;;;;;55.30;24.67;;;8.80;99.90;;;;;;5072687;28;20034;-60
2022/12/23 00:57:46;;;;;;;62.50;26.42;;;8.90;99.90;;;;;;5072420;28;20517;-60
2022/12/23 01:00:12;;;;;;;61.25;26.17;;;8.80;99.90;;;;;;5085668;28;20115;-60
2022/12/23 01:05:37;;;;;;;54.42;23.80;;;8.80;99.90;;;;;;5059813;28;20124;-59
2022/12/23 01:08:09;;;;;;;50.53;25.20;;;8.90;99.90;;;;;;5072272;28;20040;-59
2022/12/23 01:10:38;;;;;;;46.80;23.13;;;8.90;99.90;;;;;;5054436;28;20045;-60
2022/12/23 01:13:05;;;;;;;48.58;23.10;;;8.80;99.90;;;;;;5071566;28;20052;-59
2022/12/23 01:15:31;;;;;;;49.40;23.45;;;8.80;99.90;;;;;;5072337;28;20059;-60
2022/12/23 01:17:56;;;;;;;46.20;24.08;;;8.90;99.90;;;;;;5073311;28;20367;-60
2022/12/23 01:20:23;;;;;;;45.00;22.67;;;8.80;99.90;;;;;;5070057;28;20456;-59
2022/12/23 01:22:49;;;;;;;41.90;21.45;;;8.90;99.90;;;;;;5071375;28;20044;-61
2022/12/23 01:25:15;;;;;;;41.35;21.70;;;8.80;99.90;;;;;;5081589;28;20051;-61
2022/12/23 01:27:41;;;;;;;41.78;22.40;;;8.80;99.90;;;;;;5075392;28;20061;-60
2022/12/23 01:30:07;;;;;;;45.10;21.67;;;8.90;99.90;;;;;;5077998;28;20104;-61
2022/12/23 01:32:33;;;;;;;39.50;21.55;;;8.90;99.90;;;;;;5071273;28;20165;-60
2022/12/23 01:34:58;;;;;;;42.92;21.67;;;8.90;99.90;;;;;;5072090;28;20067;-60
2022/12/23 01:37:24;;;;;;;44.20;22.08;;;8.80;99.90;;;;;;5071941;28;20115;-60
2022/12/23 01:39:50;;;;;;;39.63;20.55;;;8.80;99.90;;;;;;5071450;28;20036;-59
2022/12/23 01:45:23;;;;;;;40.38;21.83;;;8.80;99.90;;;;;;5075647;28;20075;-60
2022/12/23 01:48:05;;;;;;;47.75;21.77;;;8.80;99.90;;;;;;5061565;28;20047;-59
2022/12/23 01:50:39;;;;;;;39.72;21.63;;;8.80;99.90;;;;;;5072285;28;20064;-60
2022/12/23 01:53:16;;;;;;;49.75;24.48;;;8.70;99.90;;;;;;5071303;28;20047;-60
2022/12/23 01:55:50;;;;;;;45.67;22.38;;;8.80;99.90;;;;;;5075253;28;20352;-61
2022/12/23 01:58:26;;;;;;;53.67;24.42;;;8.70;99.90;;;;;;5080812;28;20032;-60
2022/12/23 02:03:42;;;;;;;68.35;26.60;;;8.70;99.90;;;;;;5087241;28;20056;-59
2022/12/23 02:09:16;;;;;;;48.28;20.88;;;8.60;99.90;;;;;;5073096;28;20105;-60
2022/12/23 02:12:02;;;;;;;41.08;19.48;;;8.60;99.90;;;;;;5090302;28;20414;-60
2022/12/23 02:17:34;;;;;;;36.58;17.98;;;8.40;99.90;;;;;;5076771;28;20048;-60
2022/12/23 02:20:28;;;;;;;34.72;17.88;;;8.50;99.90;;;;;;5079283;28;20532;-60
2022/12/23 02:23:08;;;;;;;30.17;15.77;;;8.50;99.90;;;;;;5090935;28;20503;-60
2022/12/23 02:26:04;;;;;;;31.65;15.70;;;8.50;99.90;;;;;;5075473;28;20067;-60
2022/12/23 02:28:48;;;;;;;27.23;13.82;;;8.40;99.90;;;;;;5074400;28;20532;-60
2022/12/23 02:31:28;;;;;;;27.00;13.97;;;8.30;99.90;;;;;;5089860;28;20051;-61
2022/12/23 02:34:02;;;;;;;28.10;13.63;;;8.30;99.90;;;;;;5091877;28;20503;-61
2022/12/23 02:36:39;;;;;;;29.42;14.30;;;8.40;99.90;;;;;;5090557;28;20101;-61
2022/12/23 02:39:10;;;;;;;33.83;14.48;;;8.30;99.90;;;;;;5091948;28;20052;-59
2022/12/23 02:41:53;;;;;;;24.42;13.38;;;8.40;99.90;;;;;;5087034;28;20136;-60
2022/12/23 02:44:25;;;;;;;25.60;14.20;;;8.30;99.90;;;;;;5081593;28;20149;-60
2022/12/23 02:46:58;;;;;;;25.45;13.63;;;8.30;99.90;;;;;;5080706;28;20288;-62
2022/12/23 02:49:36;;;;;;;27.23;13.65;;;8.30;99.90;;;;;;5075337;28;20480;-60
2022/12/23 02:52:06;;;;;;;25.40;12.90;;;8.20;99.90;;;;;;5066768;28;20052;-58
2022/12/23 02:54:37;;;;;;;23.77;13.18;;;8.10;99.90;;;;;;5077577;28;20485;-61
2022/12/23 02:57:05;;;;;;;27.42;13.60;;;8.20;99.90;;;;;;5078236;28;20476;-60
2022/12/23 02:59:39;;;;;;;23.20;13.35;;;8.30;99.90;;;;;;5084093;28;20090;-60
2022/12/23 03:02:05;;;;;;;23.10;12.40;;;8.20;99.90;;;;;;5080101;28;20045;-60
2022/12/23 03:04:30;;;;;;;20.83;12.52;;;8.30;99.90;;;;;;5084785;28;20028;-61
2022/12/23 03:06:58;;;;;;;26.15;13.07;;;8.20;99.90;;;;;;5090062;28;20036;-59
2022/12/23 03:09:30;;;;;;;24.08;12.68;;;8.30;99.90;;;;;;5091375;28;20048;-60
2022/12/23 03:12:08;;;;;;;28.00;14.23;;;8.20;99.90;;;;;;5092393;28;20456;-61
2022/12/23 03:15:36;;;;;;;25.45;14.40;;;8.20;99.90;;;;;;5090379;28;20051;-60
2022/12/23 03:18:40;;;;;;;27.60;14.13;;;8.10;99.90;;;;;;4970686;28;20047;-60
2022/12/23 03:21:11;;;;;;;26.25;14.80;;;8.10;99.90;;;;;;4972780;28;20077;-60
2022/12/23 03:23:50;;;;;;;30.48;15.20;;;8.00;99.90;;;;;;5076423;28;20476;-59
2022/12/23 03:26:20;;;;;;;28.98;15.75;;;8.10;99.90;;;;;;5090650;28;20028;-61
2022/12/23 03:29:12;;;;;;;34.53;16.58;;;8.10;99.90;;;;;;5093440;28;20052;-60
2022/12/23 03:31:40;;;;;;;34.05;15.68;;;8.10;99.90;;;;;;5086423;28;20044;-60
2022/12/23 03:34:11;;;;;;;39.28;17.55;;;8.20;99.90;;;;;;5079955;28;20447;-60
2022/12/23 03:36:45;;;;;;;44.58;18.27;;;8.10;99.90;;;;;;5074240;28;20028;-58
2022/12/23 03:39:18;;;;;;;46.88;19.58;;;8.20;99.90;;;;;;5082927;28;20039;-60
2022/12/23 03:41:50;;;;;;;54.85;19.63;;;8.00;99.90;;;;;;5081862;28;20044;-62
2022/12/23 03:44:20;;;;;;;47.67;19.30;;;8.00;99.90;;;;;;5074943;28;20053;-60
2022/12/23 03:46:54;;;;;;;49.08;20.00;;;8.10;99.90;;;;;;5081702;28;20028;-60
2022/12/23 03:49:26;;;;;;;34.72;16.73;;;8.00;99.90;;;;;;5082793;28;20040;-59
2022/12/23 03:52:14;;;;;;;77.82;23.55;;;8.10;99.90;;;;;;5073344;28;20489;-61
2022/12/23 03:54:45;;;;;;;59.53;20.25;;;8.10;99.90;;;;;;5083465;28;20036;-59
2022/12/23 03:57:12;;;;;;;79.85;22.70;;;8.00;99.90;;;;;;5075575;28;20052;-61
2022/12/23 03:59:44;;;;;;;72.72;21.48;;;8.10;99.90;;;;;;5065358;28;20032;-61
2022/12/23 04:02:23;;;;;;;57.00;19.73;;;8.00;99.90;;;;;;5081397;28;20049;-60
2022/12/23 04:05:04;;;;;;;78.05;22.90;;;8.00;99.90;;;;;;5073641;28;20127;-60
2022/12/23 04:07:34;;;;;;;60.03;22.45;;;8.00;99.90;;;;;;5086357;28;20036;-59
2022/12/23 04:10:00;;;;;;;57.03;21.27;;;8.00;99.90;;;;;;5088055;28;20078;-60
2022/12/23 04:12:28;;;;;;;56.00;21.05;;;7.90;99.90;;;;;;5087493;28;20063;-61
2022/12/23 04:14:54;;;;;;;53.50;20.85;;;8.10;99.90;;;;;;5053742;28;20729;-60
2022/12/23 04:17:19;;;;;;;58.92;21.63;;;7.90;99.90;;;;;;5086622;28;20036;-59
2022/12/23 04:19:45;;;;;;;38.63;18.05;;;7.90;99.90;;;;;;5073694;28;20137;-60
2022/12/23 04:22:12;;;;;;;49.20;18.83;;;7.90;99.90;;;;;;5065032;28;20048;-60
2022/12/23 04:24:38;;;;;;;35.13;16.88;;;7.90;99.90;;;;;;5078054;28;20135;-61
2022/12/23 04:27:04;;;;;;;49.58;19.38;;;8.10;99.90;;;;;;5089620;28;20124;-60
2022/12/23 04:29:30;;;;;;;44.83;18.73;;;8.10;99.90;;;;;;5073129;28;20046;-60
2022/12/23 04:31:55;;;;;;;33.28;16.83;;;8.00;99.90;;;;;;5072520;28;20423;-62
2022/12/23 04:34:21;;;;;;;41.90;17.63;;;8.00;99.90;;;;;;5072482;28;20036;-62
2022/12/23 04:36:47;;;;;;;40.42;17.98;;;8.00;99.90;;;;;;5072686;28;20127;-59
2022/12/23 04:39:12;;;;;;;30.80;16.60;;;8.00;99.90;;;;;;5071864;28;20068;-62
2022/12/23 04:41:38;;;;;;;33.20;16.70;;;8.00;99.90;;;;;;5081009;28;20087;-59
2022/12/23 04:44:03;;;;;;;34.55;18.08;;;7.90;99.90;;;;;;5083236;28;20047;-61
2022/12/23 04:46:29;;;;;;;44.08;19.98;;;8.10;99.90;;;;;;5081873;28;20041;-61
2022/12/23 04:48:55;;;;;;;37.55;17.70;;;8.00;99.90;;;;;;5076299;28;20036;-60
2022/12/23 04:51:20;;;;;;;38.10;18.90;;;8.00;99.90;;;;;;5081616;28;20415;-62
2022/12/23 04:53:46;;;;;;;40.22;18.95;;;7.90;99.90;;;;;;5081656;28;20449;-59
2022/12/23 04:56:12;;;;;;;45.15;20.92;;;8.00;99.90;;;;;;5087070;28;20040;-60
2022/12/23 04:58:37;;;;;;;36.05;19.58;;;7.90;99.90;;;;;;5078699;28;20031;-60
2022/12/23 05:01:08;;;;;;;44.88;20.83;;;8.00;99.90;;;;;;5081808;28;20437;-60
2022/12/23 05:03:34;;;;;;;37.72;19.75;;;8.00;99.90;;;;;;5083563;28;20429;-60
2022/12/23 05:06:00;;;;;;;46.72;21.52;;;8.00;99.90;;;;;;5072495;28;20036;-61
2022/12/23 05:08:26;;;;;;;39.70;20.20;;;8.00;99.90;;;;;;5089707;28;20089;-60
2022/12/23 05:10:51;;;;;;;49.85;21.85;;;8.00;99.90;;;;;;5092032;28;20036;-60
2022/12/23 05:13:17;;;;;;;37.15;18.95;;;7.90;99.90;;;;;;5038490;28;20123;-60
2022/12/23 05:15:44;;;;;;;52.70;21.83;;;7.90;99.90;;;;;;5083400;28;20172;-60
2022/12/23 05:18:10;;;;;;;114.38;25.23;;;8.00;99.90;;;;;;5073444;28;20443;-62
2022/12/23 05:20:36;;;;;;;66.03;23.50;;;7.80;99.90;;;;;;5070134;28;20094;-61
2022/12/23 05:23:01;;;;;;;127.50;26.98;;;7.90;99.90;;;;;;5073907;28;20032;-60
2022/12/23 05:25:27;;;;;;;48.28;21.85;;;7.70;99.90;;;;;;5082865;28;20057;-59
2022/12/23 05:27:52;;;;;;;78.88;25.63;;;7.70;99.90;;;;;;5081442;28;20048;-59
2022/12/23 05:30:18;;;;;;;57.92;21.13;;;7.80;99.90;;;;;;5072358;28;20409;-58
2022/12/23 05:32:44;;;;;;;47.85;20.45;;;7.90;99.90;;;;;;5071177;28;20044;-60
2022/12/23 05:35:09;;;;;;;97.43;25.85;;;7.80;99.90;;;;;;5072079;28;20475;-60
2022/12/23 05:37:35;;;;;;;75.85;24.90;;;7.80;99.90;;;;;;5075953;28;20047;-60
2022/12/23 05:40:01;;;;;;;48.13;22.83;;;7.90;99.90;;;;;;5077498;28;20044;-62
2022/12/23 05:42:26;;;;;;;61.03;23.67;;;7.90;99.90;;;;;;5084672;28;20032;-62
2022/12/23 05:44:52;;;;;;;89.47;25.85;;;7.90;99.90;;;;;;5072131;28;20115;-59
2022/12/23 05:47:18;;;;;;;56.00;23.02;;;7.90;99.90;;;;;;5071728;28;20036;-59
2022/12/23 05:49:43;;;;;;;42.80;21.70;;;8.00;99.90;;;;;;5072155;28;20032;-61
2022/12/23 05:52:09;;;;;;;52.00;22.63;;;7.90;99.90;;;;;;5077598;28;20047;-60
2022/12/23 05:54:34;;;;;;;81.68;25.25;;;8.00;99.90;;;;;;5072623;28;20132;-61
2022/12/23 05:57:00;;;;;;;59.20;24.55;;;7.90;99.90;;;;;;5084148;28;20425;-60
2022/12/23 05:59:25;;;;;;;58.45;23.95;;;8.00;99.90;;;;;;5072110;28;20481;-62
2022/12/23 06:01:51;;;;;;;76.72;24.70;;;8.00;99.90;;;;;;5082560;28;20511;-62
2022/12/23 06:04:16;;;;;;;45.47;22.52;;;7.90;99.90;;;;;;5074588;28;20039;-61
2022/12/23 06:06:42;;;;;;;48.47;20.85;;;8.00;99.90;;;;;;5084157;28;20045;-63
2022/12/23 06:09:08;;;;;;;62.17;24.30;;;7.90;99.90;;;;;;5071501;28;20040;-62
2022/12/23 06:11:34;;;;;;;47.85;22.58;;;7.80;99.90;;;;;;5079874;28;20120;-62
2022/12/23 06:13:59;;;;;;;98.00;24.75;;;7.90;99.90;;;;;;5067998;28;20128;-63
2022/12/23 06:16:25;;;;;;;74.13;21.02;;;7.90;99.90;;;;;;5085744;28;20109;-61
2022/12/23 06:18:54;;;;;;;53.72;22.58;;;8.00;99.90;;;;;;5090503;28;20036;-63
2022/12/23 06:21:20;;;;;;;184.60;28.90;;;7.90;99.90;;;;;;5081242;28;20040;-63
2022/12/23 06:23:46;;;;;;;194.25;27.95;;;7.80;99.90;;;;;;5084759;28;20052;-61
2022/12/23 06:26:11;;;;;;;262.58;33.28;;;7.70;99.90;;;;;;5082809;28;20075;-60
2022/12/23 06:28:37;;;;;;;114.63;24.27;;;7.80;99.90;;;;;;5084659;28;20123;-61
2022/12/23 06:31:03;;;;;;;77.10;21.75;;;7.70;99.90;;;;;;5076228;28;20037;-61
2022/12/23 06:33:28;;;;;;;119.05;24.83;;;7.80;99.90;;;;;;5085375;28;20093;-61
2022/12/23 06:35:54;;;;;;;81.07;20.92;;;7.80;99.90;;;;;;5071237;28;20120;-61
2022/12/23 06:38:19;;;;;;;63.50;19.15;;;7.80;99.90;;;;;;5076121;28;20044;-61
2022/12/23 06:40:45;;;;;;;91.85;22.17;;;7.80;99.90;;;;;;5075150;28;20042;-60
2022/12/23 06:43:12;;;;;;;130.93;24.58;;;7.80;99.90;;;;;;5087403;28;20032;-61
2022/12/23 06:45:39;;;;;;;81.15;21.60;;;7.70;99.90;;;;;;5089107;28;20463;-61
2022/12/23 06:48:09;;;;;;;95.07;22.77;;;7.70;99.90;;;;;;5093946;28;20036;-61
2022/12/23 06:50:35;;;;;;;67.15;21.23;;;7.80;99.90;;;;;;5075712;28;20118;-59
2022/12/23 06:53:00;;;;;;;36.25;19.17;;;7.70;99.90;;;;;;5091425;28;20131;-61
2022/12/23 06:55:26;;;;;;;49.47;19.00;;;7.70;99.90;;;;;;5087628;28;20106;-61
2022/12/23 06:57:52;;;;;;;25.65;17.05;;;7.70;99.90;;;;;;5074947;28;20456;-59
2022/12/23 07:00:17;;;;;;;49.38;19.10;;;7.70;99.90;;;;;;5089817;28;20368;-59
2022/12/23 07:02:43;;;;;;;42.05;19.88;;;7.80;99.90;;;;;;5090842;28;20329;-61
2022/12/23 07:05:08;;;;;;;42.83;18.95;;;7.80;99.90;;;;;;5089109;28;20036;-61
2022/12/23 07:07:34;;;;;;;22.58;15.43;;;7.70;99.90;;;;;;5091972;28;20036;-59
2022/12/23 07:10:00;;;;;;;25.25;16.38;;;7.70;99.90;;;;;;5082263;28;20040;-60
2022/12/23 07:12:27;;;;;;;22.77;14.68;;;7.80;99.90;;;;;;5089933;28;20032;-60
2022/12/23 07:14:52;;;;;;;23.55;15.52;;;7.90;99.90;;;;;;5085159;28;20045;-62
2022/12/23 07:17:18;;;;;;;25.63;15.57;;;7.80;99.90;;;;;;5092362;28;20031;-60
2022/12/23 07:19:43;;;;;;;23.13;14.60;;;7.80;99.90;;;;;;5086458;28;20051;-61
2022/12/23 07:22:09;;;;;;;26.85;16.08;;;7.80;99.90;;;;;;5092269;28;20040;-61
2022/12/23 07:24:35;;;;;;;23.52;14.85;;;7.70;99.90;;;;;;5062375;28;20078;-59
2022/12/23 07:27:00;;;;;;;21.58;14.18;;;7.70;99.90;;;;;;5079249;28;20095;-59
2022/12/23 07:29:26;;;;;;;19.83;13.75;;;7.80;99.90;;;;;;5076607;28;20033;-61
2022/12/23 07:31:54;;;;;;;19.35;12.77;;;7.80;99.90;;;;;;5073875;28;20053;-59
2022/12/23 07:34:20;;;;;;;17.70;12.95;;;7.70;99.90;;;;;;5075616;28;20048;-60
2022/12/23 07:36:46;;;;;;;16.90;12.18;;;7.80;99.90;;;;;;5078045;28;20032;-60
2022/12/23 07:39:11;;;;;;;19.00;12.55;;;7.60;99.90;;;;;;5078701;28;20059;-59
2022/12/23 07:41:37;;;;;;;17.13;12.15;;;7.60;99.90;;;;;;5075585;28;20090;-60
2022/12/23 07:44:02;;;;;;;15.88;11.40;;;7.70;99.90;;;;;;5075812;28;20040;-60
2022/12/23 07:46:28;;;;;;;17.50;13.05;;;7.70;99.90;;;;;;5073825;28;20291;-60
2022/12/23 07:48:53;;;;;;;15.45;11.90;;;7.70;99.90;;;;;;5073876;28;20405;-60
2022/12/23 07:51:19;;;;;;;17.13;12.88;;;7.70;99.90;;;;;;5083716;28;20357;-59
2022/12/23 07:53:48;;;;;;;17.10;13.35;;;7.70;99.90;;;;;;5077019;28;20346;-60
2022/12/23 07:56:13;;;;;;;17.20;12.27;;;7.80;99.90;;;;;;5083405;28;20115;-60
2022/12/23 07:58:39;;;;;;;18.05;12.90;;;7.80;99.90;;;;;;5077749;28;20282;-60
2022/12/23 08:01:08;;;;;;;22.58;14.73;;;7.80;99.90;;;;;;5073270;28;20051;-59
2022/12/23 08:03:35;;;;;;;24.95;14.77;;;7.80;99.90;;;;;;5071523;28;20047;-59
2022/12/23 08:06:07;;;;;;;18.50;12.98;;;7.90;99.90;;;;;;5067395;28;20330;-61
2022/12/23 08:08:34;;;;;;;17.88;12.38;;;7.80;99.90;;;;;;5075207;28;20039;-60
2022/12/23 08:11:06;;;;;;;17.00;12.38;;;7.80;99.90;;;;;;5075752;28;20043;-59
2022/12/23 08:13:34;;;;;;;16.70;11.77;;;7.90;99.90;;;;;;5074465;28;20113;-59
2022/12/23 08:16:01;;;;;;;17.08;12.10;;;7.80;99.90;;;;;;5074388;28;20048;-60
2022/12/23 08:18:29;;;;;;;15.60;11.43;;;7.90;99.90;;;;;;5080356;28;20105;-61
2022/12/23 08:20:59;;;;;;;15.40;12.20;;;7.90;99.90;;;;;;5069034;28;20040;-62
2022/12/23 08:23:26;;;;;;;18.70;13.20;;;7.80;99.90;;;;;;5073148;28;20085;-60
2022/12/23 08:26:00;;;;;;;16.23;12.45;;;7.90;99.90;;;;;;5080084;28;20107;-60
2022/12/23 08:28:26;;;;;;;20.43;12.60;;;7.90;99.90;;;;;;5074889;28;20052;-62
2022/12/23 08:30:52;;;;;;;17.10;12.90;;;7.80;99.90;;;;;;5060328;28;20067;-60
2022/12/23 08:33:18;;;;;;;21.08;13.65;;;7.90;99.90;;;;;;5075326;28;20106;-60
2022/12/23 08:35:43;;;;;;;19.27;12.35;;;7.80;99.90;;;;;;5059276;28;20047;-60
2022/12/23 08:38:09;;;;;;;16.23;11.75;;;7.90;99.90;;;;;;5075807;28;20115;-59
2022/12/23 08:40:40;;;;;;;18.10;12.90;;;8.00;99.90;;;;;;5072802;28;20091;-59
2022/12/23 08:43:06;;;;;;;21.40;12.82;;;7.90;99.90;;;;;;5075651;28;20127;-60
2022/12/23 08:45:37;;;;;;;23.05;13.93;;;8.00;99.90;;;;;;5077551;28;20127;-61
2022/12/23 08:48:04;;;;;;;20.60;13.20;;;8.00;99.90;;;;;;5079812;28;20344;-58
2022/12/23 08:50:37;;;;;;;19.33;13.18;;;7.90;99.90;;;;;;5086952;28;20039;-60
2022/12/23 08:53:02;;;;;;;19.08;12.30;;;7.90;99.90;;;;;;5091376;28;20048;-60
2022/12/23 08:55:28;;;;;;;16.60;11.60;;;7.90;99.90;;;;;;5076032;28;20063;-60
2022/12/23 08:57:54;;;;;;;17.48;12.32;;;8.00;99.90;;;;;;5090793;28;20648;-61
2022/12/23 09:00:19;;;;;;;21.52;13.55;;;7.90;99.90;;;;;;5088401;28;20133;-61
2022/12/23 09:02:45;;;;;;;19.42;13.70;;;7.90;99.90;;;;;;5088854;28;20040;-61
2022/12/23 09:05:12;;;;;;;21.50;13.32;;;8.00;99.90;;;;;;5084609;28;20032;-60
2022/12/23 09:07:37;;;;;;;22.08;14.13;;;8.00;99.90;;;;;;5070542;28;20040;-60
2022/12/23 09:10:03;;;;;;;27.13;14.30;;;8.10;99.90;;;;;;5070694;28;20467;-61
2022/12/23 09:12:29;;;;;;;18.92;12.43;;;8.00;99.90;;;;;;5090188;28;20376;-61
2022/12/23 09:14:56;;;;;;;20.30;11.80;;;8.00;99.90;;;;;;5081461;28;20141;-60
2022/12/23 09:17:21;;;;;;;20.40;13.07;;;8.00;99.90;;;;;;5072303;28;20036;-60
2022/12/23 09:19:48;;;;;;;20.13;13.48;;;8.00;99.90;;;;;;5071955;28;20043;-57
2022/12/23 09:22:22;;;;;;;18.23;12.35;;;8.10;99.90;;;;;;5083024;28;20058;-61
2022/12/23 09:24:48;;;;;;;;;;;8.00;99.90;;;;;;5077984;28;20032;-59
2022/12/23 09:27:13;;;;;;;17.98;12.45;;;7.90;99.90;;;;;;5080293;28;19931;-58
2022/12/23 09:29:39;;;;;;;21.85;13.32;;;8.00;99.90;;;;;;5075172;28;20055;-59
2022/12/23 09:32:05;;;;;;;17.75;12.43;;;8.10;99.90;;;;;;5073081;28;20043;-57
2022/12/23 09:34:31;;;;;;;19.83;13.75;;;8.00;99.90;;;;;;5057948;28;20456;-60
2022/12/23 09:36:56;;;;;;;20.17;12.90;;;8.20;99.90;;;;;;5079184;28;20105;-61
2022/12/23 09:39:23;;;;;;;17.67;12.20;;;8.00;99.90;;;;;;5073468;28;20353;-60
2022/12/23 09:42:00;;;;;;;19.35;11.98;;;8.00;99.90;;;;;;5074663;28;20035;-59
2022/12/23 09:44:46;;;;;;;19.20;11.07;;;7.90;99.90;;;;;;5071420;28;20132;-60
2022/12/23 09:47:24;;;;;;;18.52;11.32;;;8.00;99.90;;;;;;5076787;28;20037;-61
2022/12/23 09:50:27;;;;;;;17.17;10.57;;;7.90;99.90;;;;;;5075687;28;20044;-61
2022/12/23 09:53:02;;;;;;;17.33;11.32;;;7.90;99.90;;;;;;5079191;28;20055;-60
2022/12/23 09:55:41;;;;;;;18.08;11.68;;;8.00;99.90;;;;;;5086360;28;20119;-60
2022/12/23 09:58:33;;;;;;;17.35;11.60;;;7.90;99.90;;;;;;5078519;28;20802;-60
2022/12/23 10:01:08;;;;;;;16.50;10.85;;;8.10;99.90;;;;;;5044528;28;20059;-61
2022/12/23 10:03:55;;;;;;;18.02;11.15;;;8.00;99.90;;;;;;5087820;28;20039;-60
2022/12/23 10:06:27;;;;;;;17.00;10.48;;;8.10;99.90;;;;;;5080582;28;20040;-62
2022/12/23 10:09:00;;;;;;;14.10;9.32;;;8.10;99.90;;;;;;5073275;28;20083;-60
2022/12/23 10:11:30;;;;;;;14.70;10.20;;;8.00;99.90;;;;;;5077385;28;20032;-62
2022/12/23 10:14:02;;;;;;;15.80;10.35;;;8.20;99.90;;;;;;5072826;28;20054;-62
2022/12/23 10:16:37;;;;;;;15.93;9.63;;;8.20;99.90;;;;;;5080397;28;20105;-60
2022/12/23 10:19:21;;;;;;;16.70;10.10;;;8.20;99.90;;;;;;5081959;28;20040;-60
2022/12/23 10:21:49;;;;;;;16.35;9.80;;;8.30;99.90;;;;;;5062874;28;20042;-60
2022/12/23 10:24:27;;;;;;;14.23;9.52;;;8.30;99.90;;;;;;5080052;28;20095;-59
2022/12/23 10:27:00;;;;;;;15.00;9.75;;;8.30;99.90;;;;;;5090864;28;20062;-59
2022/12/23 10:29:30;;;;;;;15.32;9.30;;;8.30;99.90;;;;;;5057739;28;20036;-63
2022/12/23 10:32:23;;;;;;;12.82;8.70;;;8.30;99.90;;;;;;5064254;28;20063;-63
2022/12/23 10:35:21;;;;;;;12.45;8.05;;;8.20;99.90;;;;;;5048334;28;20108;-60
2022/12/23 10:37:59;;;;;;;13.27;8.65;;;8.40;99.90;;;;;;5055152;28;20049;-61
2022/12/23 10:40:56;;;;;;;11.73;7.90;;;8.30;99.90;;;;;;5054389;28;20407;-60
2022/12/23 10:43:43;;;;;;;13.20;8.88;;;8.30;99.90;;;;;;5054715;28;20053;-62
2022/12/23 10:46:19;;;;;;;14.00;9.27;;;8.40;99.90;;;;;;5042155;28;20460;-60
2022/12/23 10:49:11;;;;;;;12.82;8.63;;;8.40;99.90;;;;;;5062500;28;20040;-61
2022/12/23 10:51:51;;;;;;;12.55;8.27;;;8.40;99.90;;;;;;5048472;28;20044;-61
2022/12/23 10:54:31;;;;;;;15.75;9.45;;;8.40;99.90;;;;;;5049603;28;20083;-61
2022/12/23 10:56:57;;;;;;;13.70;8.63;;;8.50;99.90;;;;;;5059080;28;20044;-62
2022/12/23 10:59:30;;;;;;;15.35;9.38;;;8.40;99.90;;;;;;5061655;28;20048;-61
2022/12/23 11:02:08;;;;;;;14.65;9.32;;;8.30;99.90;;;;;;5069693;28;20133;-61
2022/12/23 11:04:42;;;;;;;14.63;9.65;;;8.40;99.90;;;;;;5059550;28;20402;-60
2022/12/23 11:07:11;;;;;;;16.55;9.75;;;8.40;99.90;;;;;;5054395;28;20134;-61
2022/12/23 11:09:44;;;;;;;15.75;10.25;;;8.40;99.90;;;;;;5062192;28;20028;-60
2022/12/23 11:12:12;;;;;;;19.77;11.13;;;8.30;99.90;;;;;;5049268;28;20041;-60
2022/12/23 11:14:48;;;;;;;16.17;11.00;;;8.40;99.90;;;;;;5058067;28;20358;-61
2022/12/23 11:17:23;;;;;;;17.00;10.82;;;8.50;99.90;;;;;;5060504;28;20306;-61
2022/12/23 11:20:12;;;;;;;20.67;11.25;;;8.40;99.90;;;;;;5054329;28;20340;-61
2022/12/23 11:22:49;;;;;;;17.80;11.15;;;8.40;99.90;;;;;;5053024;28;20465;-61
2022/12/23 11:25:29;;;;;;;18.95;11.52;;;8.40;99.90;;;;;;5041663;28;20140;-60
2022/12/23 11:28:00;;;;;;;21.35;12.30;;;8.30;99.90;;;;;;5065283;28;20052;-62
2022/12/23 11:30:26;;;;;;;22.75;12.35;;;8.50;99.90;;;;;;5080595;28;20036;-59
2022/12/23 11:32:52;;;;;;;22.70;12.75;;;8.30;99.90;;;;;;5074487;28;20049;-61
2022/12/23 11:35:32;;;;;;;29.02;14.68;;;8.40;99.90;;;;;;5073607;28;20428;-64
2022/12/23 11:37:59;;;;;;;26.17;14.15;;;8.40;99.90;;;;;;5061715;28;20048;-59
2022/12/23 11:40:36;;;;;;;32.13;14.63;;;8.40;99.90;;;;;;5086295;28;20113;-60
2022/12/23 11:43:10;;;;;;;25.75;13.85;;;8.50;99.90;;;;;;5089578;28;20047;-61
2022/12/23 11:45:37;;;;;;;25.85;14.85;;;8.40;99.90;;;;;;5084773;28;20036;-64
2022/12/23 11:48:04;;;;;;;28.95;15.20;;;8.40;99.90;;;;;;5071871;28;20072;-61
2022/12/23 11:50:38;;;;;;;25.35;14.55;;;8.40;99.90;;;;;;5053464;28;20043;-60
2022/12/23 11:53:20;;;;;;;31.13;16.92;;;8.40;99.90;;;;;;5071924;28;20072;-62
2022/12/23 11:55:58;;;;;;;30.75;16.70;;;8.40;99.90;;;;;;5073666;28;20044;-61
2022/12/23 11:58:27;;;;;;;28.13;15.43;;;8.30;99.90;;;;;;5077203;28;20032;-61
2022/12/23 12:00:58;;;;;;;26.92;15.30;;;8.40;99.90;;;;;;5073496;28;20096;-61
2022/12/23 12:03:30;;;;;;;29.17;15.90;;;8.40;99.90;;;;;;5073046;28;20042;-61
2022/12/23 12:06:15;;;;;;;23.38;14.27;;;8.40;99.90;;;;;;5023189;28;20480;-62
2022/12/23 12:08:42;;;;;;;29.55;16.20;;;8.40;99.90;;;;;;5076255;28;20464;-63
2022/12/23 12:11:15;;;;;;;26.38;15.05;;;8.40;99.90;;;;;;5070711;28;20044;-62
2022/12/23 12:13:50;;;;;;;31.33;17.13;;;8.30;99.90;;;;;;5084823;28;20041;-61
2022/12/23 12:16:22;;;;;;;34.53;17.13;;;8.30;99.90;;;;;;5085314;28;20443;-61
2022/12/23 12:18:49;;;;;;;24.77;14.90;;;8.30;99.90;;;;;;5083450;28;20044;-63
2022/12/23 12:21:21;;;;;;;33.97;18.30;;;8.50;99.90;;;;;;5071119;28;20436;-62
2022/12/23 12:23:53;;;;;;;25.67;15.70;;;8.50;99.90;;;;;;5073274;28;20320;-61
2022/12/23 12:26:27;;;;;;;27.80;16.45;;;8.40;99.90;;;;;;5086704;28;20357;-60
2022/12/23 12:29:10;;;;;;;27.52;16.42;;;8.50;99.90;;;;;;5046109;28;20056;-61
2022/12/23 12:31:44;;;;;;;27.02;15.75;;;8.40;99.90;;;;;;5080481;28;20079;-62
2022/12/23 12:34:28;;;;;;;33.20;18.30;;;8.50;99.90;;;;;;5086835;28;20464;-61
2022/12/23 12:37:09;;;;;;;31.23;17.13;;;8.40;99.90;;;;;;5091734;28;20087;-61
2022/12/23 12:40:00;;;;;;;39.47;20.25;;;8.50;99.90;;;;;;5088457;28;20117;-61
2022/12/23 12:42:41;;;;;;;41.45;19.52;;;8.40;99.90;;;;;;5086849;28;20087;-62
2022/12/23 12:45:18;;;;;;;46.67;21.13;;;8.40;99.90;;;;;;5086133;28;20379;-61
2022/12/23 12:47:47;;;;;;;38.80;18.55;;;8.30;99.90;;;;;;5086482;28;20058;-61
2022/12/23 12:50:20;;;;;;;29.70;16.98;;;8.40;99.90;;;;;;5090208;28;20036;-61
2022/12/23 12:52:46;;;;;;;31.67;17.55;;;8.50;99.90;;;;;;5087677;28;20044;-60
2022/12/23 12:55:24;;;;;;;38.15;18.50;;;8.50;99.90;;;;;;5085868;28;20054;-62
2022/12/23 12:57:49;;;;;;;32.55;17.48;;;8.50;99.90;;;;;;5090101;28;20123;-61
2022/12/23 13:00:18;;;;;;;35.90;16.75;;;8.50;99.90;;;;;;5088393;28;20037;-59
2022/12/23 13:02:53;;;;;;;34.58;17.48;;;8.40;99.90;;;;;;5088816;28;20040;-61
2022/12/23 13:05:43;;;;;;;30.08;15.73;;;8.40;99.90;;;;;;5082471;28;20032;-61
2022/12/23 13:08:27;;;;;;;32.78;16.38;;;8.50;99.90;;;;;;5087123;28;20032;-60
2022/12/23 13:11:07;;;;;;;30.65;16.85;;;8.40;99.90;;;;;;5082665;28;20369;-62
2022/12/23 13:14:03;;;;;;;33.05;17.02;;;8.40;99.90;;;;;;5077800;28;20044;-62
2022/12/23 13:16:47;;;;;;;29.40;15.23;;;8.40;99.90;;;;;;5075261;28;20135;-61
2022/12/23 13:19:27;;;;;;;28.50;14.43;;;8.40;99.90;;;;;;5070622;28;20040;-61
2022/12/23 13:22:14;;;;;;;27.33;14.48;;;8.50;99.90;;;;;;5060718;28;20044;-62
2022/12/23 13:24:55;;;;;;;28.95;14.20;;;8.50;99.90;;;;;;5070224;28;20563;-61